Time;durP1;ratioP1;P1;durP2;ratioP2;P2;SDS_P1;SDS_P2;PMS_P1;PMS_P2;Temp;Humidity;BMP_temperature;BMP_pressure;BME280_temperature;BME280_humidity;BME280_pressure;Samples;Min_cycle;Max_cycle;Signal;HPM_P1;HPM_P2
2021/11/08 00:02:03;;;;;;;;;33.50;30.25;;;;;11.07;57.38;101850.72;4977719;28;45190;-49
2021/11/08 00:04:31;;;;;;;;;31.50;26.00;;;;;10.99;57.58;101841.94;4977445;27;45346;-51
2021/11/08 00:06:56;;;;;;;;;31.50;29.00;;;;;11.00;57.92;101844.56;4977485;28;47335;-51
2021/11/08 00:09:22;;;;;;;;;37.00;28.25;;;;;10.99;57.67;101834.94;4977627;28;45276;-50
2021/11/08 00:11:47;;;;;;;;;31.50;28.50;;;;;10.96;57.58;101826.16;4977768;28;45318;-52
2021/11/08 00:14:17;;;;;;;;;31.50;28.75;;;;;10.96;57.82;101831.41;4977443;28;45249;-48
2021/11/08 00:19:27;;;;;;;;;29.75;28.25;;;;;10.89;57.89;101841.03;4977069;28;45509;-50
2021/11/08 00:21:55;;;;;;;;;30.75;30.25;;;;;10.86;57.90;101835.78;4977545;28;45186;-50
2021/11/08 00:24:24;;;;;;;;;31.00;28.00;;;;;10.83;57.70;101835.75;4977542;28;45280;-47
2021/11/08 00:26:53;;;;;;;;;37.00;31.00;;;;;10.82;57.93;101842.78;4977338;28;45421;-50
2021/11/08 00:29:19;;;;;;;;;31.75;28.50;;;;;10.80;57.97;101844.50;4977235;28;45277;-51
2021/11/08 00:31:45;;;;;;;;;40.00;33.00;;;;;10.75;57.95;101835.75;4977504;28;45143;-51
2021/11/08 00:34:11;;;;;;;;;36.25;32.50;;;;;10.73;58.06;101830.47;4976988;28;45342;-48
2021/11/08 00:36:36;;;;;;;;;33.75;31.50;;;;;10.71;57.83;101842.72;4977234;28;45374;-49
2021/11/08 00:39:03;;;;;;;;;35.50;29.75;;;;;10.69;57.89;101844.50;4975667;28;45427;-50
2021/11/08 00:41:29;;;;;;;;;39.50;32.25;;;;;10.68;58.07;101852.38;4977342;27;45307;-47
2021/11/08 00:43:54;;;;;;;;;40.00;32.75;;;;;10.66;57.88;101848.88;4975686;28;45477;-48
2021/11/08 00:46:21;;;;;;;;;32.00;31.25;;;;;10.64;58.01;101846.25;4977024;28;46014;-50
2021/11/08 00:48:46;;;;;;;;;34.50;29.50;;;;;10.59;58.02;101837.47;4971140;28;45222;-50
2021/11/08 00:51:14;;;;;;;;;38.00;33.50;;;;;10.60;58.18;101847.09;4976928;28;45314;-52
2021/11/08 00:53:40;;;;;;;;;41.00;34.25;;;;;10.55;58.17;101839.19;4976858;28;45620;-52
2021/11/08 00:56:10;;;;;;;;;38.50;33.25;;;;;10.56;57.99;101845.31;4975597;28;47147;-50
2021/11/08 00:58:38;;;;;;;;;32.25;29.50;;;;;10.54;57.99;101841.81;4976637;28;45193;-52
2021/11/08 01:01:07;;;;;;;;;35.00;31.25;;;;;10.52;57.99;101849.69;4976799;28;45309;-52
2021/11/08 01:03:36;;;;;;;;;36.75;32.00;;;;;10.51;58.09;101847.94;4975630;28;45771;-49
2021/11/08 01:06:02;;;;;;;;;41.25;33.00;;;;;10.49;58.23;101847.06;4976498;28;47199;-51
2021/11/08 01:08:28;;;;;;;;;40.25;35.25;;;;;10.46;58.17;101844.41;4976802;28;45398;-48
2021/11/08 01:10:54;;;;;;;;;42.25;36.00;;;;;10.45;58.17;101847.03;4977194;28;45216;-53
2021/11/08 01:13:19;;;;;;;;;48.75;33.25;;;;;10.43;58.26;101841.78;4979827;28;45180;-50
2021/11/08 01:15:45;;;;;;;;;31.50;29.25;;;;;10.39;58.06;101853.16;4979899;28;46115;-51
2021/11/08 01:18:11;;;;;;;;;38.25;29.75;;;;;10.37;58.36;101858.38;4979874;28;45351;-49
2021/11/08 01:20:43;;;;;;;;;33.25;29.00;;;;;10.35;58.40;101854.84;4979603;28;45303;-49
2021/11/08 01:23:09;;;;;;;;;40.75;35.00;;;;;10.31;58.34;101839.06;4979930;28;45312;-49
2021/11/08 01:25:35;;;;;;;;;39.50;32.00;;;;;10.33;58.40;101846.06;4979604;28;45145;-52
2021/11/08 01:28:03;;;;;;;;;39.00;32.00;;;;;10.31;58.33;101844.31;4979642;28;45362;-53
2021/11/08 01:30:29;;;;;;;;;39.25;32.25;;;;;10.29;58.27;101832.91;4979797;28;45292;-48
2021/11/08 01:33:08;;;;;;;;;43.50;36.00;;;;;10.27;58.50;101835.53;4970477;28;45334;-50
2021/11/08 01:35:57;;;;;;;;;35.00;30.75;;;;;10.26;58.23;101839.03;4976074;28;46034;-52
2021/11/08 01:38:25;;;;;;;;;34.75;32.50;;;;;10.24;58.29;101843.41;4979614;28;45271;-48
2021/11/08 01:40:51;;;;;;;;;41.00;33.25;;;;;10.23;58.31;101844.28;4972015;28;45329;-51
2021/11/08 01:43:17;;;;;;;;;32.75;32.00;;;;;10.20;58.29;101828.50;4973000;28;45292;-50
2021/11/08 01:45:42;;;;;;;;;37.25;32.75;;;;;10.21;58.50;101838.13;4979429;28;45332;-48
2021/11/08 01:48:10;;;;;;;;;44.25;34.75;;;;;10.20;58.37;101829.38;4981264;28;45372;-48
2021/11/08 01:50:37;;;;;;;;;38.00;33.00;;;;;10.19;58.51;101829.38;4979441;28;45261;-48
2021/11/08 01:53:04;;;;;;;;;45.00;35.00;;;;;10.17;58.38;101833.75;4979197;28;45351;-52
2021/11/08 01:55:30;;;;;;;;;46.00;35.75;;;;;10.15;58.44;101830.22;4979366;28;45296;-49
2021/11/08 01:57:57;;;;;;;;;41.75;36.00;;;;;10.15;58.52;101830.22;4977920;28;45330;-50
2021/11/08 02:00:23;;;;;;;;;40.50;34.00;;;;;10.11;58.48;101826.69;4979235;28;45464;-49
2021/11/08 02:02:49;;;;;;;;;43.50;34.00;;;;;10.10;58.46;101824.97;4979338;28;45238;-48
2021/11/08 02:05:15;;;;;;;;;49.75;39.50;;;;;10.09;58.38;101821.44;4969930;28;46296;-50
2021/11/08 02:07:41;;;;;;;;;37.75;32.75;;;;;10.09;58.29;101826.69;4959643;28;45340;-48
2021/11/08 02:10:09;;;;;;;;;38.50;33.75;;;;;10.07;58.42;101825.84;4962867;28;45375;-48
2021/11/08 02:12:35;;;;;;;;;42.00;32.00;;;;;10.01;58.33;101809.16;4973979;28;45450;-52
2021/11/08 02:15:03;;;;;;;;;42.25;36.75;;;;;10.05;58.71;101824.94;4979111;28;46206;-49
2021/11/08 02:17:29;;;;;;;;;37.50;32.50;;;;;10.01;58.79;101817.91;4978970;28;45235;-49
2021/11/08 02:19:56;;;;;;;;;46.50;36.25;;;;;10.00;58.70;101831.91;4978826;28;45308;-48
2021/11/08 02:22:23;;;;;;;;;45.00;34.75;;;;;10.01;58.76;101822.28;4962399;28;45325;-51
2021/11/08 02:24:49;;;;;;;;;38.00;32.75;;;;;9.99;58.51;101832.78;4959402;28;46351;-51
2021/11/08 02:27:18;;;;;;;;;39.25;33.00;;;;;9.97;58.75;101825.75;4959265;28;45462;-49
2021/11/08 02:29:44;;;;;;;;;40.75;35.00;;;;;9.93;58.58;101825.72;4959636;28;45287;-53
2021/11/08 02:32:10;;;;;;;;;39.50;34.50;;;;;9.92;58.82;101813.50;4959436;28;45301;-47
2021/11/08 02:34:35;;;;;;;;;53.50;39.00;;;;;9.92;58.55;101820.47;4959229;28;47097;-50
2021/11/08 02:37:00;;;;;;;;;42.75;36.00;;;;;9.89;58.84;101821.34;4959267;28;45431;-52
2021/11/08 02:39:31;;;;;;;;;46.75;35.00;;;;;9.86;58.85;101820.44;4959434;28;45352;-52
2021/11/08 02:41:58;;;;;;;;;42.75;34.25;;;;;9.86;58.61;101823.97;4959314;28;45165;-50
2021/11/08 02:44:23;;;;;;;;;40.00;34.50;;;;;9.84;58.77;101825.69;4959281;28;46151;-51
2021/11/08 02:46:52;;;;;;;;;41.00;34.75;;;;;9.81;58.87;101823.06;4959093;28;45162;-49
2021/11/08 02:49:23;;;;;;;;;35.00;32.00;;;;;9.80;58.86;101820.41;4973397;28;45420;-49
2021/11/08 02:51:58;;;;;;;;;41.50;34.50;;;;;9.71;58.60;101800.22;4978592;28;45264;-50
2021/11/08 02:54:29;;;;;;;;;43.00;35.50;;;;;9.75;58.53;101813.38;4965816;28;46282;-48
2021/11/08 02:56:55;;;;;;;;;42.00;35.00;;;;;9.73;58.81;101820.34;4977510;28;45295;-52
2021/11/08 02:59:21;;;;;;;;;35.50;31.50;;;;;9.73;58.81;101822.97;4978928;28;45296;-51
2021/11/08 03:01:48;;;;;;;;;33.75;31.25;;;;;9.73;58.95;101822.13;4978263;28;45323;-49
2021/11/08 03:04:19;;;;;;;;;35.25;30.50;;;;;9.69;58.80;101820.34;4978292;28;46062;-52
2021/11/08 03:06:44;;;;;;;;;33.50;31.00;;;;;9.69;58.70;101820.34;4978585;28;45343;-50
2021/11/08 03:09:17;;;;;;;;;42.25;33.00;;;;;9.68;58.81;101818.59;4978536;28;45303;-50
2021/11/08 03:11:43;;;;;;;;;36.75;33.00;;;;;9.66;58.94;101815.06;4978473;28;45284;-51
2021/11/08 03:14:14;;;;;;;;;41.75;30.25;;;;;9.62;58.84;101813.28;4976912;28;48745;-52
2021/11/08 03:16:48;;;;;;;;;36.50;32.50;;;;;9.62;58.99;101808.91;4978393;28;45237;-51
2021/11/08 03:19:18;;;;;;;;;37.75;32.75;;;;;9.61;59.07;101817.66;4978089;28;45438;-51
2021/11/08 03:21:47;;;;;;;;;32.25;30.00;;;;;9.59;58.96;101808.91;4978289;28;45268;-51
2021/11/08 03:24:16;;;;;;;;;31.50;29.00;;;;;9.56;58.88;101816.75;4978356;28;46313;-48
2021/11/08 03:26:47;;;;;;;;;41.50;33.00;;;;;9.53;59.09;101825.47;4978325;28;45411;-52
2021/11/08 03:29:12;;;;;;;;;36.25;33.00;;;;;9.48;58.89;101815.81;4978266;28;45255;-51
2021/11/08 03:31:40;;;;;;;;;43.25;36.25;;;;;9.46;59.22;101825.41;4978347;28;45448;-51
2021/11/08 03:34:08;;;;;;;;;35.25;33.00;;;;;9.42;59.24;101833.28;4976741;28;46311;-49
2021/11/08 03:36:34;;;;;;;;;35.50;32.50;;;;;9.39;59.06;101827.97;4976836;28;45294;-50
2021/11/08 03:38:59;;;;;;;;;37.50;34.00;;;;;9.37;59.21;101828.84;4978023;28;45400;-50
2021/11/08 03:41:25;;;;;;;;;38.75;35.25;;;;;9.34;59.25;101823.59;4978162;28;45379;-51
2021/11/08 03:43:50;;;;;;;;;41.00;32.75;;;;;9.32;59.01;101830.56;4977773;28;45216;-48
2021/11/08 03:46:16;;;;;;;;;33.25;30.50;;;;;9.26;59.39;101820.91;4978007;28;45179;-49
2021/11/08 03:48:42;;;;;;;;;34.25;29.25;;;;;9.29;58.97;101822.66;4972034;28;45295;-49
2021/11/08 03:51:08;;;;;;;;;35.25;28.50;;;;;9.24;59.08;101826.13;4978048;28;45477;-52
2021/11/08 03:53:34;;;;;;;;;35.75;29.50;;;;;9.21;59.16;101828.72;4977651;28;46992;-48
2021/11/08 03:56:01;;;;;;;;;32.25;30.50;;;;;9.18;59.16;101827.81;4978049;28;45244;-51
2021/11/08 03:58:26;;;;;;;;;31.25;28.25;;;;;9.09;59.07;101815.50;4976382;28;45414;-49
2021/11/08 04:00:52;;;;;;;;;37.50;32.50;;;;;9.11;59.45;101822.50;4977741;28;45308;-51
2021/11/08 04:03:17;;;;;;;;;37.75;31.75;;;;;9.09;59.12;101820.72;4977556;28;45300;-51
2021/11/08 04:05:43;;;;;;;;;36.00;30.00;;;;;9.08;59.28;101814.63;4977478;28;45318;-50
2021/11/08 04:08:13;;;;;;;;;35.50;31.00;;;;;9.03;59.39;101807.56;4977753;28;45442;-49
2021/11/08 04:10:41;;;;;;;;;30.75;26.00;;;;;9.04;59.17;101810.22;4977833;28;45223;-49
2021/11/08 04:13:08;;;;;;;;;31.00;26.00;;;;;9.05;59.38;101814.56;4977342;28;46326;-49
2021/11/08 04:15:37;;;;;;;;;34.75;30.75;;;;;9.06;59.39;101823.34;4977534;28;45412;-50
2021/11/08 04:18:06;;;;;;;;;30.50;28.50;;;;;9.05;59.35;101816.34;4977468;28;45239;-49
2021/11/08 04:20:32;;;;;;;;;44.50;34.00;;;;;9.01;59.26;101804.06;4975857;28;45489;-52
2021/11/08 04:22:57;;;;;;;;;35.75;32.75;;;;;9.04;59.31;101806.72;4977432;28;46264;-51
2021/11/08 04:25:24;;;;;;;;;34.25;31.00;;;;;9.03;59.54;101813.72;4962944;28;45683;-51
2021/11/08 04:27:51;;;;;;;;;41.00;35.75;;;;;9.02;59.59;101817.19;4957999;28;45319;-48
2021/11/08 04:30:18;;;;;;;;;34.50;30.00;;;;;9.03;59.35;101818.06;4956627;28;45423;-50
2021/11/08 04:35:40;;;;;;;;;33.25;27.50;;;;;9.00;59.45;101829.38;4957378;28;45502;-51
2021/11/08 04:40:50;;;;;;;;;33.50;26.25;;;;;9.00;59.54;101841.63;4957603;28;45411;-50
2021/11/08 04:51:17;;;;;;;;;56.75;45.50;;;;;8.97;59.30;101838.97;4980356;28;45299;-54
2021/11/08 04:57:19;;;;;;;;;44.75;36.00;;;;;8.93;59.22;101840.66;4980117;28;45363;-50
2021/11/08 05:31:43;;;;;;;;;36.25;32.50;;;;;8.80;59.64;101841.44;4977697;28;45524;-50
2021/11/08 05:34:08;;;;;;;;;42.75;35.75;;;;;8.78;59.60;101847.53;4973819;28;45536;-48
2021/11/08 05:36:34;;;;;;;;;49.25;36.00;;;;;8.80;59.39;101846.66;4961885;28;46159;-48
2021/11/08 05:39:03;;;;;;;;;34.50;28.00;;;;;8.78;59.64;101847.53;4979398;28;45269;-50
2021/11/08 05:41:28;;;;;;;;;39.50;36.00;;;;;8.78;59.43;101844.03;4979719;28;45335;-50
2021/11/08 05:43:54;;;;;;;;;39.50;30.75;;;;;8.77;59.65;101851.00;4977996;28;45390;-48
2021/11/08 05:46:20;;;;;;;;;32.25;30.50;;;;;8.75;59.62;101850.13;4979323;28;46277;-48
2021/11/08 05:48:46;;;;;;;;;33.25;29.00;;;;;8.77;59.80;101847.53;4971002;28;45483;-48
2021/11/08 05:51:12;;;;;;;;;28.50;25.00;;;;;8.76;59.82;101851.88;4979623;28;45253;-51
2021/11/08 05:53:38;;;;;;;;;46.00;38.25;;;;;8.75;59.58;101855.38;4973582;28;45267;-48
2021/11/08 05:58:56;;;;;;;;;39.50;33.25;;;;;8.76;59.66;101867.59;4977675;28;45247;-48
2021/11/08 06:50:40;;;;;;;;;40.00;36.00;;;;;8.68;59.68;101905.06;4958949;28;45348;-47
2021/11/08 06:53:08;;;;;;;;;45.75;37.00;;;;;8.67;59.62;101901.56;4958215;28;45423;-45
2021/11/08 06:55:35;;;;;;;;;43.00;37.75;;;;;8.67;60.42;101909.44;4959260;28;45305;-45
2021/11/08 06:58:03;;;;;;;;;45.00;37.50;;;;;8.67;59.77;101903.31;4957532;28;45297;-47
2021/11/08 07:00:30;;;;;;;;;46.00;37.50;;;;;8.67;59.95;101919.03;4958593;28;46984;-49
2021/11/08 07:02:55;;;;;;;;;43.25;36.25;;;;;8.67;59.58;101913.81;4958756;28;45305;-52
2021/11/08 07:05:21;;;;;;;;;42.75;36.25;;;;;8.67;59.85;101922.53;4958533;28;45384;-45
2021/11/08 07:07:47;;;;;;;;;50.50;41.00;;;;;8.66;59.89;101918.13;4958774;28;45307;-49
2021/11/08 07:10:12;;;;;;;;;53.75;44.25;;;;;8.67;60.02;101919.03;4958834;28;45929;-48
2021/11/08 07:12:38;;;;;;;;;41.50;36.00;;;;;8.68;59.92;101928.63;4958790;28;46387;-49
2021/11/08 07:15:06;;;;;;;;;43.25;37.25;;;;;8.67;59.97;101924.28;4959030;28;45229;-48
2021/11/08 07:17:32;;;;;;;;;43.75;39.50;;;;;8.67;59.90;101925.16;4958694;28;45289;-47
2021/11/08 07:20:00;;;;;;;;;89.00;74.67;;;;;8.67;59.96;101933.00;4958425;28;45387;-48
2021/11/08 07:22:28;;;;;;;;;53.00;41.25;;;;;8.68;59.95;101931.25;4958802;28;45560;-50
2021/11/08 07:24:53;;;;;;;;;42.00;35.75;;;;;8.68;60.15;101936.50;4959249;28;45207;-50
2021/11/08 07:27:19;;;;;;;;;52.50;37.50;;;;;8.68;59.78;101934.78;4958562;28;45419;-48
2021/11/08 07:29:45;;;;;;;;;47.50;38.00;;;;;8.66;59.94;101933.00;4958841;28;45913;-46
2021/11/08 07:32:10;;;;;;;;;43.50;36.50;;;;;8.67;60.24;101938.25;4958729;28;45341;-44
2021/11/08 07:34:36;;;;;;;;;45.25;37.50;;;;;8.69;59.83;101943.50;4958786;28;45326;-45
2021/11/08 07:37:01;;;;;;;;;53.50;43.00;;;;;8.67;59.85;101946.13;4958553;28;45331;-48
2021/11/08 07:39:27;;;;;;;;;55.75;43.00;;;;;8.70;60.15;101946.13;4958009;28;45415;-48
2021/11/08 07:41:53;;;;;;;;;54.00;42.50;;;;;8.71;59.90;101947.91;4957433;28;45319;-48
2021/11/08 07:44:18;;;;;;;;;54.00;42.25;;;;;8.71;60.29;101942.66;4958680;28;45298;-45
2021/11/08 07:46:44;;;;;;;;;44.25;37.50;;;;;8.74;59.93;101947.06;4958304;28;45349;-50
2021/11/08 07:49:10;;;;;;;;;52.00;43.25;;;;;8.75;59.91;101938.34;4973172;28;46290;-49
2021/11/08 07:51:35;;;;;;;;;49.00;40.00;;;;;8.77;60.33;101940.13;4977867;28;45319;-47
2021/11/08 07:54:00;;;;;;;;;41.75;35.00;;;;;8.80;60.26;101946.28;4978190;28;45298;-49
2021/11/08 07:56:26;;;;;;;;;41.00;35.50;;;;;8.82;60.16;101953.28;4963568;28;45507;-45
2021/11/08 07:58:51;;;;;;;;;40.50;35.75;;;;;8.84;60.24;101943.72;4977820;28;46202;-47
2021/11/08 08:01:17;;;;;;;;;41.25;35.25;;;;;8.88;60.20;101949.84;4976388;28;45665;-46
2021/11/08 08:03:45;;;;;;;;;49.50;38.50;;;;;8.93;60.30;101966.50;4976554;28;45312;-48
2021/11/08 08:06:11;;;;;;;;;48.00;37.00;;;;;8.97;60.07;101959.56;4976541;28;45258;-46
2021/11/08 08:08:37;;;;;;;;;32.25;29.00;;;;;9.01;60.34;101958.75;4967877;28;46058;-45
2021/11/08 08:11:05;;;;;;;;;47.00;39.50;;;;;9.07;60.60;101967.56;4958136;28;45396;-45
2021/11/08 08:13:33;;;;;;;;;32.00;28.50;;;;;9.11;60.33;101958.00;4958303;28;45380;-46
2021/11/08 08:16:00;;;;;;;;;38.75;31.75;;;;;9.17;60.38;101963.31;4958073;28;45241;-47
2021/11/08 08:18:31;;;;;;;;;36.75;32.50;;;;;9.23;60.60;101965.13;4958115;28;45978;-47
2021/11/08 08:20:57;;;;;;;;;42.75;34.75;;;;;9.32;60.59;101974.81;4957316;28;45345;-47
2021/11/08 08:23:24;;;;;;;;;41.00;35.00;;;;;9.33;60.60;101963.47;4958238;28;45244;-46
2021/11/08 08:25:50;;;;;;;;;42.25;35.75;;;;;9.46;60.55;101965.38;4957947;28;45509;-47
2021/11/08 08:28:15;;;;;;;;;49.25;40.50;;;;;9.55;60.46;101970.69;4957871;28;47375;-46
2021/11/08 08:30:41;;;;;;;;;40.00;35.00;;;;;9.63;60.63;101964.66;4957885;28;45374;-50
2021/11/08 08:33:07;;;;;;;;;47.75;38.00;;;;;9.74;60.77;101973.50;4958165;28;45319;-45
2021/11/08 08:35:39;;;;;;;;;35.25;30.00;;;;;9.83;60.70;101977.97;4957601;28;45514;-46
2021/11/08 08:38:07;;;;;;;;;45.25;37.00;;;;;9.93;60.64;101971.91;4957938;28;46303;-47
2021/11/08 08:40:32;;;;;;;;;46.00;36.00;;;;;10.04;60.65;101972.00;4957665;28;45494;-49
2021/11/08 08:42:58;;;;;;;;;45.25;37.50;;;;;10.16;60.94;101976.47;4958106;28;45458;-47
2021/11/08 08:45:23;;;;;;;;;41.75;37.50;;;;;10.28;60.90;101980.94;4957533;28;45561;-47
2021/11/08 08:47:48;;;;;;;;;51.25;39.00;;;;;10.40;61.03;101981.91;4956321;28;46410;-45
2021/11/08 08:50:14;;;;;;;;;45.50;38.00;;;;;10.52;60.84;101977.59;4980891;28;45307;-46
2021/11/08 08:52:40;;;;;;;;;41.00;35.50;;;;;10.64;60.89;101974.16;4977214;28;45328;-48
2021/11/08 08:55:07;;;;;;;;;49.00;39.25;;;;;10.75;61.20;101985.59;4976865;28;45395;-47
2021/11/08 08:57:32;;;;;;;;;43.25;35.50;;;;;10.86;60.90;101983.91;4976981;28;45276;-46
2021/11/08 08:59:58;;;;;;;;;45.25;35.50;;;;;10.95;60.98;101977.81;4976652;28;45433;-47
2021/11/08 09:02:23;;;;;;;;;46.75;36.25;;;;;11.08;60.97;101984.00;4977180;28;45661;-48
2021/11/08 09:04:51;;;;;;;;;43.25;36.75;;;;;11.22;60.98;101978.78;4976482;28;45498;-48
2021/11/08 09:07:17;;;;;;;;;50.00;38.00;;;;;11.33;61.10;101986.69;4976842;28;45310;-52
2021/11/08 09:09:43;;;;;;;;;43.75;37.25;;;;;11.46;61.15;101982.34;4976757;28;45472;-47
2021/11/08 09:12:10;;;;;;;;;49.50;37.75;;;;;11.57;61.28;101980.59;4976904;28;45362;-48
2021/11/08 09:14:37;;;;;;;;;49.50;38.00;;;;;11.73;61.07;101983.28;4976622;28;45253;-48
2021/11/08 09:17:03;;;;;;;;;49.25;40.00;;;;;11.85;61.22;101980.66;4976555;28;46830;-46
2021/11/08 09:19:29;;;;;;;;;46.50;39.00;;;;;12.01;61.15;101987.69;4976334;28;45368;-48
2021/11/08 09:21:55;;;;;;;;;47.00;37.25;;;;;12.17;61.14;101980.63;4976742;28;45331;-47
2021/11/08 09:24:22;;;;;;;;;39.75;35.50;;;;;12.33;61.32;101985.91;4976562;28;45454;-47
2021/11/08 09:26:49;;;;;;;;;45.50;34.50;;;;;12.48;61.36;101980.59;4976376;28;46406;-49
2021/11/08 09:29:15;;;;;;;;;43.50;36.00;;;;;12.63;61.07;101978.81;4976247;28;45358;-47
2021/11/08 09:31:44;;;;;;;;;43.75;34.50;;;;;12.81;61.40;101975.22;4975383;28;45260;-51
2021/11/08 09:34:10;;;;;;;;;46.25;36.25;;;;;12.98;61.23;101973.41;4979378;28;45232;-47
2021/11/08 09:36:39;;;;;;;;;41.00;35.50;;;;;13.16;61.20;101975.06;4979531;28;47154;-48
2021/11/08 09:39:10;;;;;;;;;43.00;35.25;;;;;13.35;61.38;101976.75;4978066;27;45599;-49
2021/11/08 09:41:37;;;;;;;;;38.25;34.75;;;;;13.52;61.42;101977.53;4979683;28;45331;-48
2021/11/08 09:44:06;;;;;;;;;42.50;36.00;;;;;13.67;60.92;101981.81;4978047;28;45402;-50
2021/11/08 09:46:33;;;;;;;;;47.00;38.00;;;;;13.84;61.24;101981.69;4979198;28;46241;-46
2021/11/08 09:49:01;;;;;;;;;42.25;36.00;;;;;14.02;61.04;101982.44;4972153;28;45374;-47
2021/11/08 09:51:33;;;;;;;;;43.25;35.00;;;;;14.15;60.71;101978.78;4979484;28;45386;-46
2021/11/08 09:53:59;;;;;;;;;43.75;33.75;;;;;14.34;60.87;101983.88;4979459;28;45222;-48
2021/11/08 09:56:24;;;;;;;;;39.75;33.00;;;;;14.50;60.91;101971.38;4979303;28;46207;-48
2021/11/08 09:58:55;;;;;;;;;29.00;25.00;;;;;14.71;60.65;101986.16;4969803;28;45279;-51
2021/11/08 10:01:22;;;;;;;;;32.75;29.50;;;;;14.87;60.56;101978.94;4959773;28;45171;-48
2021/11/08 10:03:48;;;;;;;;;32.00;29.00;;;;;15.00;60.97;101971.69;4959600;28;45561;-48
2021/11/08 10:06:13;;;;;;;;;33.25;29.25;;;;;15.19;60.37;101975.84;4959489;28;46114;-47
2021/11/08 10:08:40;;;;;;;;;30.50;29.00;;;;;15.36;60.77;101969.44;4959840;28;45232;-48
2021/11/08 10:11:10;;;;;;;;;27.25;24.50;;;;;15.54;60.52;101976.22;4959840;28;45244;-49
2021/11/08 10:13:36;;;;;;;;;38.75;31.75;;;;;15.71;60.82;101973.31;4959544;28;45336;-49
2021/11/08 10:16:06;;;;;;;;;32.50;28.00;;;;;15.86;60.16;101970.47;4959676;28;46313;-47
2021/11/08 10:18:33;;;;;;;;;31.25;26.25;;;;;16.00;60.21;101972.88;4974461;28;45451;-47
2021/11/08 10:21:21;;;;;;;;;29.00;27.25;;;;;16.15;60.02;101973.47;4959462;28;45312;-48
2021/11/08 10:23:50;;;;;;;;;30.75;28.75;;;;;16.25;59.72;101970.66;4959605;28;45237;-51
2021/11/08 10:26:20;;;;;;;;;37.25;29.75;;;;;16.37;59.70;101969.53;4965894;28;46280;-52
2021/11/08 10:28:57;;;;;;;;;35.25;29.75;;;;;16.48;59.62;101966.69;4978716;28;45370;-58
2021/11/08 10:31:29;;;;;;;;;31.50;29.00;;;;;16.62;59.34;101970.84;4977820;27;45272;-47
2021/11/08 10:33:57;;;;;;;;;33.50;27.75;;;;;16.67;59.17;101958.38;4978456;27;45775;-47
2021/11/08 10:36:23;;;;;;;;;42.75;36.25;;;;;16.82;59.01;101971.31;4978700;28;46013;-52
2021/11/08 10:38:52;;;;;;;;;36.50;31.75;;;;;16.90;58.83;101964.06;4978683;28;45181;-50
2021/11/08 10:41:24;;;;;;;;;21.75;17.75;;;;;17.04;58.75;101968.22;4978910;28;45299;-48
2021/11/08 10:43:55;;;;;;;;;26.25;23.25;;;;;17.15;58.81;101971.53;4978143;28;45262;-49
2021/11/08 10:46:35;;;;;;;;;23.00;21.50;;;;;17.28;58.51;101968.59;4978590;28;45260;-52
2021/11/08 10:49:06;;;;;;;;;26.00;18.00;;;;;17.37;58.42;101974.56;4972626;28;45488;-50
2021/11/08 10:51:32;;;;;;;;;16.75;16.00;;;;;17.52;58.20;101970.69;4978789;28;45243;-52
2021/11/08 10:54:22;;;;;;;;;20.25;16.75;;;;;17.64;57.65;101965.97;4978672;28;45476;-51
2021/11/08 10:57:02;;;;;;;;;19.00;16.50;;;;;17.75;57.69;101952.41;4978469;27;45274;-48
2021/11/08 10:59:34;;;;;;;;;17.00;14.00;;;;;17.86;57.36;101959.22;4978471;28;45207;-49
2021/11/08 11:02:03;;;;;;;;;12.25;10.75;;;;;17.98;57.48;101958.06;4978497;28;45355;-50
2021/11/08 11:04:38;;;;;;;;;9.75;7.00;;;;;18.10;56.94;101954.22;4978422;28;45409;-47
2021/11/08 11:07:04;;;;;;;;;13.00;10.50;;;;;18.17;56.94;101945.13;4978420;28;45287;-51
2021/11/08 11:09:34;;;;;;;;;14.50;12.75;;;;;18.31;56.69;101952.78;4961166;28;45179;-47
2021/11/08 11:12:25;;;;;;;;;10.75;7.75;;;;;18.42;56.50;101957.78;4957646;28;45348;-50
2021/11/08 11:15:09;;;;;;;;;12.50;12.00;;;;;18.47;56.49;101947.88;4955584;28;45274;-49
2021/11/08 11:17:42;;;;;;;;;9.00;7.25;;;;;18.51;56.39;101954.88;4974350;28;45566;-51
2021/11/08 11:20:15;;;;;;;;;8.75;8.25;;;;;18.54;55.84;101955.69;4978169;28;45313;-48
2021/11/08 11:22:45;;;;;;;;;11.50;10.25;;;;;18.56;55.77;101957.38;4978272;28;45323;-48
2021/11/08 11:25:14;;;;;;;;;12.50;8.00;;;;;18.59;55.49;101961.75;4978264;28;45368;-48
2021/11/08 11:27:50;;;;;;;;;10.50;8.00;;;;;18.62;55.47;101945.69;4977969;28;45381;-51
2021/11/08 11:30:33;;;;;;;;;7.75;6.50;;;;;18.63;55.77;101943.00;4963590;28;45300;-49
2021/11/08 11:33:01;;;;;;;;;8.50;6.25;;;;;18.70;55.47;101940.16;4957597;28;45380;-48
2021/11/08 11:35:29;;;;;;;;;7.00;5.25;;;;;18.74;55.53;101945.34;4958404;28;45289;-52
2021/11/08 11:38:01;;;;;;;;;10.00;5.25;;;;;18.81;55.50;101938.03;4958651;28;45255;-49
2021/11/08 11:40:29;;;;;;;;;11.75;5.75;;;;;18.85;55.46;101947.66;4957118;28;45203;-47
2021/11/08 11:43:03;;;;;;;;;9.00;7.25;;;;;18.89;55.39;101938.66;4958726;28;45409;-47
2021/11/08 11:45:51;;;;;;;;;9.00;7.50;;;;;18.90;55.09;101935.13;4958406;28;45494;-48
2021/11/08 11:48:19;;;;;;;;;5.75;4.00;;;;;18.93;55.28;101939.47;4965987;28;46180;-51
2021/11/08 11:50:45;;;;;;;;;5.25;4.00;;;;;18.92;54.78;101929.78;4977885;28;45322;-47
2021/11/08 11:53:11;;;;;;;;;4.75;3.25;;;;;18.91;54.46;101931.53;4978127;28;45374;-50
2021/11/08 11:55:39;;;;;;;;;12.00;7.75;;;;;18.89;54.53;101928.00;4977073;28;45844;-48
2021/11/08 11:58:06;;;;;;;;;9.50;6.75;;;;;18.86;55.01;101928.13;4977753;28;45274;-50
2021/11/08 12:00:36;;;;;;;;;6.50;5.00;;;;;18.84;54.93;101928.16;4977724;28;45516;-47
2021/11/08 12:03:02;;;;;;;;;9.50;5.00;;;;;18.81;54.43;101928.25;4977971;28;45304;-49
2021/11/08 12:05:31;;;;;;;;;12.25;6.00;;;;;18.81;54.46;101917.59;4977637;28;45253;-50
2021/11/08 12:08:00;;;;;;;;;10.50;7.00;;;;;18.84;54.73;101916.63;4959738;28;46526;-50
2021/11/08 12:10:27;;;;;;;;;7.50;5.75;;;;;18.84;54.62;101920.19;4958211;28;45343;-50
2021/11/08 12:12:53;;;;;;;;;11.00;6.00;;;;;18.89;54.48;101919.16;4970899;28;45339;-47
2021/11/08 12:15:32;;;;;;;;;8.00;5.50;;;;;18.91;54.32;101914.72;4958289;28;45502;-50
2021/11/08 12:18:08;;;;;;;;;8.00;6.50;;;;;18.94;54.32;101919.91;4956621;28;48115;-49
2021/11/08 12:20:41;;;;;;;;;11.75;7.00;;;;;18.94;53.97;101906.59;4957591;28;45342;-49
2021/11/08 12:23:12;;;;;;;;;9.00;6.25;;;;;18.95;53.82;101906.56;4958357;28;45384;-49
2021/11/08 12:25:43;;;;;;;;;7.75;6.50;;;;;18.95;53.53;101900.38;4958089;28;45271;-51
2021/11/08 12:28:16;;;;;;;;;7.00;5.25;;;;;18.94;54.03;101902.16;4957843;28;46267;-50
2021/11/08 12:30:48;;;;;;;;;8.00;4.00;;;;;18.93;53.47;101900.41;4957850;28;45285;-51
2021/11/08 12:33:36;;;;;;;;;7.25;4.25;;;;;18.91;53.52;101904.06;4957868;28;45186;-48
2021/11/08 12:36:10;;;;;;;;;6.00;4.50;;;;;18.87;53.70;101903.25;4964467;28;45381;-49
2021/11/08 12:38:41;;;;;;;;;6.75;2.75;;;;;18.81;53.56;101896.28;4977231;28;46152;-47
2021/11/08 12:41:12;;;;;;;;;6.00;4.00;;;;;18.77;53.07;101897.31;4977371;28;45252;-49
2021/11/08 12:43:49;;;;;;;;;5.75;5.50;;;;;18.72;53.26;101901.91;4977144;28;45264;-46
2021/11/08 12:46:18;;;;;;;;;10.75;9.75;;;;;18.64;53.15;101888.84;4964283;28;45535;-50
2021/11/08 12:48:45;;;;;;;;;8.25;3.75;;;;;18.58;52.83;101889.00;4969436;28;46197;-49
2021/11/08 12:51:13;;;;;;;;;7.75;6.00;;;;;18.51;53.17;101892.75;4977154;28;45299;-52
2021/11/08 12:53:42;;;;;;;;;4.00;4.00;;;;;18.47;53.30;101886.66;4977071;28;45292;-50
2021/11/08 12:56:29;;;;;;;;;5.00;4.00;;;;;18.45;53.03;101882.28;4975956;28;45582;-49
2021/11/08 12:59:00;;;;;;;;;7.50;4.75;;;;;18.44;52.46;101873.44;4966529;28;46282;-49
2021/11/08 13:01:41;;;;;;;;;5.50;4.00;;;;;18.47;52.56;101877.81;4973460;28;45419;-49
2021/11/08 13:04:09;;;;;;;;;6.00;5.00;;;;;18.48;52.35;101868.91;4976951;28;45421;-49